Weather at Baptist Medical Center Heliport

Public forecast

Using degrees Fahrenheit for public forecast. Weather courtesy of forecast.io.

Closest aviation weather report (METAR) to Baptist Medical Center Heliport

Closest report is Lackland Air Force Base, 5.5 nm (10.2 km) WSW.

2024/07/19 07:55 (retrieved 50 minutes ago)

KSKF 190755Z AUTO 00000KT 10SM CLR 26/20 A3000 RMK AO2 SLP150 T02590202

Closest aviation forecast (TAF) to Baptist Medical Center Heliport

Closest forecast is Stinson Municipal Airport, 5.9 nm (10.9 km) S.

2024/07/19 06:22 (retrieved 2 hours ago)

TAF KSSF 190520Z 1906/2006 VRB02KT P6SM BKN060 FM191600 07006KT P6SM SCT060 SCT250 FM200100 13004KT P6SM FEW040 SCT250